Time;durP1;ratioP1;P1;durP2;ratioP2;P2;SDS_P1;SDS_P2;PMS_P1;PMS_P2;Temp;Humidity;BMP_temperature;BMP_pressure;BME280_temperature;BME280_humidity;BME280_pressure;Samples;Min_cycle;Max_cycle;Signal;HPM_P1;HPM_P2
2022/09/17 00:00:39;;;;;;;1999.90;999.90;;;;;;;11.33;100.00;93575.88;6271760;22;20171;-62
2022/09/17 00:03:05;;;;;;;1999.90;999.90;;;;;;;11.28;100.00;93576.44;6245758;23;20169;-61
2022/09/17 00:05:31;;;;;;;1999.90;999.90;;;;;;;11.28;100.00;93577.22;6246113;23;20178;-60
2022/09/17 00:07:56;;;;;;;1999.90;999.90;;;;;;;11.28;100.00;93574.50;6271855;22;20247;-60
2022/09/17 00:10:23;;;;;;;1999.90;999.90;;;;;;;11.28;100.00;93584.66;6271772;22;20222;-60
2022/09/17 00:12:49;;;;;;;1999.90;999.90;;;;;;;11.29;100.00;93584.19;6246026;22;20169;-65
2022/09/17 00:15:15;;;;;;;1999.90;999.90;;;;;;;11.36;100.00;93585.91;6246111;22;20174;-62
2022/09/17 00:17:41;;;;;;;1999.90;999.90;;;;;;;11.35;100.00;93578.91;6272082;22;20157;-61
2022/09/17 00:20:09;;;;;;;1999.90;999.90;;;;;;;11.44;100.00;93576.22;6271757;22;20158;-61
2022/09/17 00:22:36;;;;;;;1999.90;999.90;;;;;;;11.35;100.00;93579.66;6246586;22;20197;-60
2022/09/17 00:25:02;;;;;;;1999.90;999.90;;;;;;;11.37;100.00;93592.88;6246113;23;20159;-61
2022/09/17 00:27:28;;;;;;;1999.90;999.90;;;;;;;11.26;100.00;93595.28;6246086;22;20231;-61
2022/09/17 00:29:53;;;;;;;1999.90;999.90;;;;;;;11.32;100.00;93591.50;6271315;22;20198;-61
2022/09/17 00:32:19;;;;;;;1999.90;999.90;;;;;;;11.23;100.00;93598.91;6271631;22;20179;-61
2022/09/17 00:34:45;;;;;;;1999.90;999.90;;;;;;;11.20;100.00;93599.81;6271640;22;20166;-61
2022/09/17 00:37:10;;;;;;;1999.90;999.90;;;;;;;11.20;100.00;93608.78;6271378;22;20168;-61
2022/09/17 00:39:36;;;;;;;1999.90;999.90;;;;;;;11.18;100.00;93613.91;6245873;22;20165;-62
2022/09/17 00:42:04;;;;;;;1999.90;999.90;;;;;;;11.24;100.00;93614.88;6271335;22;20176;-61
2022/09/17 00:44:49;;;;;;;1999.90;999.90;;;;;;;11.22;100.00;93620.00;6246108;23;20167;-61
2022/09/17 00:47:20;;;;;;;1999.90;999.90;;;;;;;11.25;100.00;93629.28;6246338;23;20186;-61
2022/09/17 00:49:47;;;;;;;1999.90;999.90;;;;;;;11.25;100.00;93640.22;6271648;22;20235;-60
2022/09/17 00:52:18;;;;;;;1999.90;999.90;;;;;;;11.20;100.00;93646.25;6246324;22;20174;-61
2022/09/17 00:54:51;;;;;;;1999.90;999.90;;;;;;;11.27;100.00;93645.97;6246763;23;20159;-62
2022/09/17 00:57:17;;;;;;;1999.90;999.90;;;;;;;11.20;100.00;93657.19;6246247;23;20179;-63
2022/09/17 00:59:42;;;;;;;1999.90;999.90;;;;;;;11.21;100.00;93672.38;6245766;23;20250;-61
2022/09/17 01:02:08;;;;;;;1999.90;999.90;;;;;;;11.10;100.00;93670.03;6271912;22;20213;-61
2022/09/17 01:04:33;;;;;;;1999.90;999.90;;;;;;;11.23;100.00;93680.88;6245954;22;20163;-60
2022/09/17 01:07:15;;;;;;;1999.90;999.90;;;;;;;11.14;100.00;93678.88;6271366;22;20186;-62
2022/09/17 01:09:59;;;;;;;1999.90;999.90;;;;;;;11.30;100.00;93686.06;6271495;22;20171;-62
2022/09/17 01:12:43;;;;;;;1999.90;999.90;;;;;;;11.32;100.00;93683.63;6271972;22;20172;-61
2022/09/17 01:15:27;;;;;;;1999.90;999.90;;;;;;;11.34;100.00;93692.16;6271500;22;20169;-61
2022/09/17 01:18:08;;;;;;;1999.90;999.90;;;;;;;11.33;100.00;93685.94;6272030;22;20158;-61
2022/09/17 01:20:49;;;;;;;1999.90;999.90;;;;;;;11.26;100.00;93697.13;6245865;23;20252;-61
2022/09/17 01:23:52;;;;;;;1999.90;999.90;;;;;;;11.25;100.00;93695.63;6271446;22;20199;-60
2022/09/17 01:26:52;;;;;;;1999.90;999.90;;;;;;;11.22;100.00;93701.97;6272004;22;20267;-61
2022/09/17 01:29:45;;;;;;;1999.90;999.90;;;;;;;11.22;100.00;93695.75;6271406;22;20173;-61
2022/09/17 01:32:37;;;;;;;1999.90;999.90;;;;;;;11.20;100.00;93703.63;6271633;22;20165;-60
2022/09/17 01:35:13;;;;;;;1999.90;999.90;;;;;;;11.19;100.00;93719.28;6246286;23;20159;-60
2022/09/17 01:37:52;;;;;;;1999.90;999.90;;;;;;;11.14;100.00;93721.84;6246228;23;20606;-61
2022/09/17 01:40:27;;;;;;;1999.90;999.90;;;;;;;11.14;100.00;93713.63;6246523;23;20157;-61
2022/09/17 01:43:07;;;;;;;1999.90;999.90;;;;;;;11.16;100.00;93714.72;6246093;23;20482;-61
2022/09/17 01:45:54;;;;;;;1999.90;999.90;;;;;;;11.18;100.00;93711.53;6246200;23;20285;-60
2022/09/17 01:48:26;;;;;;;1999.90;999.90;;;;;;;11.12;100.00;93702.38;6246180;23;20169;-61
2022/09/17 01:50:59;;;;;;;1999.90;999.90;;;;;;;11.12;100.00;93702.38;6271767;22;20235;-61
2022/09/17 01:53:34;;;;;;;1999.90;999.90;;;;;;;11.05;100.00;93702.66;6245656;23;20188;-60
2022/09/17 01:56:02;;;;;;;1999.90;999.90;;;;;;;11.08;100.00;93707.22;6245662;23;20156;-61
2022/09/17 01:58:35;;;;;;;1999.90;999.90;;;;;;;11.07;100.00;93705.72;6271183;22;20172;-61
2022/09/17 02:01:05;;;;;;;1999.90;999.90;;;;;;;11.04;100.00;93712.06;6246493;23;20166;-61
2022/09/17 02:03:36;;;;;;;1999.90;999.90;;;;;;;11.03;100.00;93705.09;6271105;22;20167;-61
2022/09/17 02:06:09;;;;;;;1999.90;999.90;;;;;;;11.05;100.00;93708.13;6271574;22;20187;-60
2022/09/17 02:08:41;;;;;;;1999.90;999.90;;;;;;;11.06;100.00;93707.66;6271444;22;20171;-61
2022/09/17 02:11:10;;;;;;;1999.90;999.90;;;;;;;11.00;100.00;93706.72;6271540;22;20224;-61
2022/09/17 02:13:49;;;;;;;1999.90;999.90;;;;;;;10.99;100.00;93709.88;6246317;23;20222;-60
2022/09/17 02:16:23;;;;;;;1999.90;999.90;;;;;;;10.93;100.00;93700.75;6245741;23;20480;-60
2022/09/17 02:18:57;;;;;;;1999.90;999.90;;;;;;;10.93;100.00;93717.91;6271809;22;20492;-60
2022/09/17 02:21:41;;;;;;;1999.90;999.90;;;;;;;10.96;100.00;93699.88;6245827;23;20287;-61
2022/09/17 02:24:16;;;;;;;1999.90;999.90;;;;;;;10.94;100.00;93710.47;6271624;22;20173;-60
2022/09/17 02:26:54;;;;;;;1999.90;999.90;;;;;;;10.96;100.00;93714.28;6245601;23;20510;-61
2022/09/17 02:29:28;;;;;;;1999.90;999.90;;;;;;;10.97;100.00;93715.81;6245827;23;20171;-61
2022/09/17 02:31:54;;;;;;;1999.90;999.90;;;;;;;10.89;100.00;93706.34;6246182;23;20187;-61
2022/09/17 02:34:20;;;;;;;1999.90;999.90;;;;;;;10.89;100.00;93711.06;6271324;22;20221;-61
2022/09/17 02:36:45;;;;;;;1999.90;999.90;;;;;;;10.91;100.00;93719.56;6271624;22;20180;-60
2022/09/17 02:39:11;;;;;;;1999.90;999.90;;;;;;;10.87;100.00;93713.47;6270946;22;20186;-61
2022/09/17 02:41:45;;;;;;;1999.90;999.90;;;;;;;10.88;100.00;93717.72;6271122;22;20173;-61
2022/09/17 02:44:13;;;;;;;1999.90;999.90;;;;;;;10.92;100.00;93710.91;6245962;23;20243;-60
2022/09/17 02:47:07;;;;;;;1999.90;999.90;;;;;;;10.94;100.00;93707.75;6271303;22;20194;-61
2022/09/17 02:49:50;;;;;;;1999.90;999.90;;;;;;;10.87;100.00;93708.00;6246134;23;20153;-60
2022/09/17 02:52:43;;;;;;;1999.90;999.90;;;;;;;10.86;100.00;93698.28;6271555;22;20165;-60
2022/09/17 02:55:44;;;;;;;1999.90;999.90;;;;;;;10.83;100.00;93701.91;6270897;22;20222;-60
2022/09/17 02:58:15;;;;;;;1999.90;999.90;;;;;;;10.86;100.00;93701.78;6271155;22;20165;-60
2022/09/17 03:00:42;;;;;;;1999.90;999.90;;;;;;;10.84;100.00;93703.44;6270652;22;20247;-61
2022/09/17 03:03:34;;;;;;;1999.90;999.90;;;;;;;10.73;100.00;93700.31;6271279;22;20178;-61
2022/09/17 03:06:00;;;;;;;1999.90;999.90;;;;;;;10.75;100.00;93690.50;6244865;23;20707;-61
2022/09/17 03:08:33;;;;;;;1999.90;999.90;;;;;;;10.70;100.00;93693.03;6245243;23;20237;-60
2022/09/17 03:10:58;;;;;;;1999.90;999.90;;;;;;;10.69;100.00;93694.22;6245272;23;20200;-61
2022/09/17 03:13:23;;;;;;;1999.90;999.90;;;;;;;10.68;100.00;93695.44;6271329;22;20169;-61
2022/09/17 03:15:49;;;;;;;1999.90;999.90;;;;;;;10.70;100.00;93693.78;6271112;22;20169;-61
2022/09/17 03:18:14;;;;;;;1999.90;999.90;;;;;;;10.58;100.00;93702.03;6271287;22;20161;-61
2022/09/17 03:20:40;;;;;;;1999.90;999.90;;;;;;;10.58;100.00;93693.84;6270761;22;20244;-61
2022/09/17 03:23:05;;;;;;;1999.90;999.90;;;;;;;10.60;100.00;93710.56;6271521;22;20192;-60
2022/09/17 03:25:30;;;;;;;1999.90;999.90;;;;;;;10.56;100.00;93715.38;6270703;22;20189;-60
2022/09/17 03:27:56;;;;;;;1999.90;999.90;;;;;;;10.53;100.00;93717.03;6269933;22;20165;-61
2022/09/17 03:30:21;;;;;;;1999.90;999.90;;;;;;;10.53;100.00;93713.53;6270929;22;20526;-61
2022/09/17 03:32:46;;;;;;;1999.90;999.90;;;;;;;10.43;100.00;93711.94;6271337;22;20169;-61
2022/09/17 03:35:12;;;;;;;1999.90;999.90;;;;;;;10.42;100.00;93721.34;6271091;22;20550;-60
2022/09/17 03:37:37;;;;;;;1999.90;999.90;;;;;;;10.40;100.00;93723.72;6270912;22;20586;-61
2022/09/17 03:40:03;;;;;;;1999.90;999.90;;;;;;;10.32;100.00;93717.00;6270596;22;20482;-61
2022/09/17 03:42:29;;;;;;;1999.90;999.90;;;;;;;10.31;100.00;93720.94;6245140;23;20173;-61
2022/09/17 03:44:55;;;;;;;1999.90;999.90;;;;;;;10.20;100.00;93728.72;6270491;22;20165;-61
2022/09/17 03:47:21;;;;;;;1999.90;999.90;;;;;;;10.19;100.00;93729.94;6270517;22;20181;-61
2022/09/17 03:49:47;;;;;;;1999.90;999.90;;;;;;;10.16;100.00;93726.09;6270429;22;20242;-61
2022/09/17 03:52:12;;;;;;;1999.90;999.90;;;;;;;10.12;100.00;93730.91;6245364;23;20204;-61
2022/09/17 03:54:38;;;;;;;1999.90;999.90;;;;;;;10.21;100.00;93732.97;6270636;22;20161;-61
2022/09/17 03:57:03;;;;;;;1999.90;999.90;;;;;;;10.18;100.00;93739.31;6270425;22;20223;-61
2022/09/17 03:59:29;;;;;;;1999.90;999.90;;;;;;;10.17;100.00;93726.88;6220513;22;20176;-61
2022/09/17 04:01:54;;;;;;;1999.90;999.90;;;;;;;10.14;100.00;93726.53;6270698;22;20161;-62
2022/09/17 04:04:19;;;;;;;1999.90;999.90;;;;;;;10.19;100.00;93721.75;6270098;22;20171;-60
2022/09/17 04:06:45;;;;;;;1999.90;999.90;;;;;;;10.19;100.00;93721.75;6244780;22;20181;-61
2022/09/17 04:09:10;;;;;;;1999.90;999.90;;;;;;;10.10;100.00;93723.16;6270281;22;20169;-60
2022/09/17 04:11:35;;;;;;;1999.90;999.90;;;;;;;10.13;100.00;93726.22;6271224;22;20164;-60
2022/09/17 04:14:01;;;;;;;1999.90;999.90;;;;;;;10.06;100.00;93727.25;6244784;23;20169;-61
2022/09/17 04:16:26;;;;;;;1999.90;999.90;;;;;;;10.08;100.00;93725.59;6244782;23;20184;-61
2022/09/17 04:18:52;;;;;;;1999.90;999.90;;;;;;;10.06;100.00;93722.53;6270948;22;20244;-60
2022/09/17 04:21:17;;;;;;;1999.90;999.90;;;;;;;10.08;100.00;93714.69;6270281;22;20240;-60
2022/09/17 04:23:42;;;;;;;1999.90;999.90;;;;;;;10.12;100.00;93711.81;6270189;22;20172;-61
2022/09/17 04:26:08;;;;;;;1999.90;999.90;;;;;;;10.19;100.00;93697.22;6270424;22;20177;-60
2022/09/17 04:28:33;;;;;;;1999.90;999.90;;;;;;;10.17;100.00;93700.38;6270676;22;20267;-60
2022/09/17 04:30:58;;;;;;;1999.90;999.90;;;;;;;10.10;100.00;93704.09;6269702;22;20173;-61
2022/09/17 04:33:24;;;;;;;1999.90;999.90;;;;;;;10.08;100.00;93717.41;6270606;22;20161;-60
2022/09/17 04:35:49;;;;;;;1999.90;999.90;;;;;;;10.13;100.00;93735.94;6244607;23;20172;-60
2022/09/17 04:38:17;;;;;;;1999.90;999.90;;;;;;;10.14;100.00;93737.44;6270103;22;20195;-61
2022/09/17 04:40:45;;;;;;;1999.90;999.90;;;;;;;10.27;100.00;93742.13;6271610;22;20476;-60
2022/09/17 04:43:10;;;;;;;1999.90;999.90;;;;;;;10.24;100.00;93751.19;6245928;22;20165;-61
2022/09/17 04:45:36;;;;;;;1999.90;999.90;;;;;;;10.31;100.00;93759.13;6246425;22;20319;-61
2022/09/17 04:48:01;;;;;;;1999.90;999.90;;;;;;;10.36;100.00;93761.28;6246385;22;20243;-61
2022/09/17 04:50:27;;;;;;;1999.90;999.90;;;;;;;10.41;100.00;93768.94;6246049;23;20180;-61
2022/09/17 04:52:52;;;;;;;1999.90;999.90;;;;;;;10.44;100.00;93781.66;6271372;22;20203;-62
2022/09/17 04:55:18;;;;;;;1999.90;999.90;;;;;;;10.50;100.00;93786.16;6271503;22;20217;-61
2022/09/17 04:57:52;;;;;;;1999.90;999.90;;;;;;;10.49;100.00;93797.50;6245600;23;20172;-61
2022/09/17 05:00:19;;;;;;;1999.90;999.90;;;;;;;10.39;100.00;93815.00;6246510;23;20169;-61
2022/09/17 05:02:46;;;;;;;1999.90;999.90;;;;;;;10.41;100.00;93818.06;6245930;22;20183;-60
2022/09/17 05:05:12;;;;;;;1999.90;999.90;;;;;;;10.43;100.00;93826.53;6245775;22;20173;-61
2022/09/17 05:07:38;;;;;;;1999.90;999.90;;;;;;;10.46;100.00;93825.66;6246131;22;20501;-60
2022/09/17 05:10:04;;;;;;;1999.90;999.90;;;;;;;10.48;100.00;93829.47;6271317;22;20175;-59
2022/09/17 05:12:29;;;;;;;1999.90;999.90;;;;;;;10.42;100.00;93825.03;6245725;23;20196;-60
2022/09/17 05:14:55;;;;;;;1999.90;999.90;;;;;;;10.43;100.00;93834.72;6271819;22;20199;-60
2022/09/17 05:17:20;;;;;;;1999.90;999.90;;;;;;;10.42;100.00;93849.59;6271924;22;20253;-59
2022/09/17 05:19:45;;;;;;;1999.90;999.90;;;;;;;10.43;100.00;93848.38;6271526;22;20167;-59
2022/09/17 05:22:11;;;;;;;1999.90;999.90;;;;;;;10.47;100.00;93866.16;6271398;22;20166;-59
2022/09/17 05:24:38;;;;;;;1999.90;999.90;;;;;;;10.50;100.00;93869.97;6271383;22;20169;-59
2022/09/17 05:27:04;;;;;;;1999.90;999.90;;;;;;;10.54;100.00;93865.94;6272008;22;20184;-61
2022/09/17 05:29:29;;;;;;;1999.90;999.90;;;;;;;10.59;100.00;93873.56;6245964;23;20177;-61
2022/09/17 05:31:54;;;;;;;1999.90;999.90;;;;;;;10.57;100.00;93875.22;6271429;22;20243;-65
2022/09/17 05:34:20;;;;;;;1999.90;999.90;;;;;;;10.54;100.00;93887.00;6271304;22;20169;-59
2022/09/17 05:36:45;;;;;;;1999.90;999.90;;;;;;;10.57;100.00;93883.41;6246510;23;20211;-59
2022/09/17 05:39:10;;;;;;;1999.90;999.90;;;;;;;10.55;100.00;93889.28;6271218;22;20303;-59
2022/09/17 05:41:36;;;;;;;1999.90;999.90;;;;;;;10.56;100.00;93890.06;6272266;22;20246;-60
2022/09/17 05:44:01;;;;;;;1999.90;999.90;;;;;;;10.58;100.00;93887.66;6270985;22;20223;-61
2022/09/17 05:46:27;;;;;;;1999.90;999.90;;;;;;;10.54;100.00;93898.69;6271639;22;20190;-60
2022/09/17 05:48:55;;;;;;;1999.90;999.90;;;;;;;10.60;100.00;93904.34;6271369;22;20157;-60
2022/09/17 05:51:20;;;;;;;1999.90;999.90;;;;;;;10.49;100.00;93907.41;6245627;23;20215;-60
2022/09/17 05:53:46;;;;;;;1999.90;999.90;;;;;;;10.19;100.00;93909.97;6271198;22;20171;-65
2022/09/17 05:56:11;;;;;;;1999.90;999.90;;;;;;;9.99;100.00;93908.16;6270991;22;20169;-65
2022/09/17 05:58:36;;;;;;;1999.90;999.90;;;;;;;9.75;100.00;93898.78;6271424;22;20161;-63
2022/09/17 06:01:03;;;;;;;1999.90;999.90;;;;;;;9.64;100.00;93898.31;6245651;22;20165;-63
2022/09/17 06:03:28;;;;;;;1999.90;999.90;;;;;;;9.65;100.00;93893.63;6245748;23;20219;-65
2022/09/17 06:05:57;;;;;;;1999.90;999.90;;;;;;;9.66;100.00;93890.47;6271547;22;20196;-65
2022/09/17 06:08:23;;;;;;;1999.90;999.90;;;;;;;9.68;100.00;93871.72;6245660;22;20165;-64
2022/09/17 06:10:48;;;;;;;1999.90;999.90;;;;;;;9.68;100.00;93860.81;6271719;22;20590;-65
2022/09/17 06:13:15;;;;;;;1999.90;999.90;;;;;;;9.75;100.00;93849.72;6271132;22;20165;-66
2022/09/17 06:15:40;;;;;;;1999.90;999.90;;;;;;;9.81;100.00;93836.31;6245676;22;20180;-66
2022/09/17 06:18:06;;;;;;;1999.90;999.90;;;;;;;9.93;100.00;93832.81;6271576;22;20162;-66
2022/09/17 06:20:31;;;;;;;1999.90;999.90;;;;;;;10.02;100.00;93820.03;6271655;22;20207;-66
2022/09/17 06:22:57;;;;;;;1999.90;999.90;;;;;;;10.13;100.00;93820.47;6271330;22;20157;-67
2022/09/17 06:25:23;;;;;;;1999.90;999.90;;;;;;;10.22;100.00;93808.13;6245388;22;20165;-65
2022/09/17 06:27:48;;;;;;;1999.90;999.90;;;;;;;10.22;100.00;93817.09;6270930;22;20157;-65
2022/09/17 06:30:13;;;;;;;1999.90;999.90;;;;;;;10.30;100.00;93812.19;6245748;23;20163;-66
2022/09/17 06:32:39;;;;;;;1999.90;999.90;;;;;;;10.33;100.00;93812.06;6246451;23;20244;-65
2022/09/17 06:35:05;;;;;;;1999.90;999.90;;;;;;;10.47;100.00;93824.47;6271076;22;20207;-65
2022/09/17 06:37:31;;;;;;;1999.90;999.90;;;;;;;10.39;100.00;93825.91;6271133;22;20172;-65
2022/09/17 06:40:00;;;;;;;1999.90;999.90;;;;;;;10.42;100.00;93819.56;6246135;22;20169;-66
2022/09/17 06:42:29;;;;;;;1999.90;999.90;;;;;;;10.53;100.00;93828.16;6245361;22;20165;-65
2022/09/17 06:44:54;;;;;;;1999.90;999.90;;;;;;;10.61;100.00;93826.72;6271529;22;20165;-65
2022/09/17 06:47:19;;;;;;;1999.90;999.90;;;;;;;10.75;100.00;93837.94;6271019;22;20196;-65
2022/09/17 06:49:45;;;;;;;1999.90;999.90;;;;;;;10.83;100.00;93838.44;6245612;22;20170;-66
2022/09/17 06:52:10;;;;;;;1999.90;999.90;;;;;;;10.93;100.00;93834.59;6245627;23;20196;-66
2022/09/17 06:54:36;;;;;;;1999.90;999.90;;;;;;;10.96;100.00;93830.97;6271376;22;20542;-65
2022/09/17 06:57:01;;;;;;;1999.90;999.90;;;;;;;10.97;100.00;93855.13;6244882;22;20172;-64
2022/09/17 06:59:27;;;;;;;1999.90;999.90;;;;;;;11.06;100.00;93868.84;6245402;23;20181;-65
2022/09/17 07:01:52;;;;;;;1999.90;999.90;;;;;;;11.79;100.00;93846.25;6271103;22;20165;-62
2022/09/17 07:04:18;;;;;;;1999.90;999.90;;;;;;;13.05;100.00;93826.69;6245367;22;20169;-65
2022/09/17 07:06:44;;;;;;;1999.90;999.90;;;;;;;14.08;100.00;93816.09;6271503;22;20193;-64
2022/09/17 07:09:10;;;;;;;1999.90;999.90;;;;;;;15.09;100.00;93810.34;6271403;22;20545;-63
2022/09/17 07:11:36;;;;;;;1999.90;999.90;;;;;;;14.18;100.00;93828.56;6245524;23;20169;-63
2022/09/17 07:14:01;;;;;;;1999.90;999.90;;;;;;;13.78;100.00;93841.81;6270993;22;20197;-61
2022/09/17 07:16:29;;;;;;;1999.90;999.90;;;;;;;13.25;100.00;93852.41;6270816;22;20168;-63
2022/09/17 07:18:54;;;;;;;1999.90;999.90;;;;;;;12.72;100.00;93864.06;6270876;22;20243;-63
2022/09/17 07:21:19;;;;;;;1999.90;999.90;;;;;;;12.75;100.00;93871.38;6271122;22;20162;-64
2022/09/17 07:23:45;;;;;;;1999.90;999.90;;;;;;;12.38;100.00;93873.25;6270787;22;20208;-63
2022/09/17 07:26:15;;;;;;;1999.90;999.90;;;;;;;13.36;100.00;93865.66;6271147;22;20184;-65
2022/09/17 07:28:42;;;;;;;1999.90;999.90;;;;;;;13.29;100.00;93874.19;6245203;22;20204;-67
2022/09/17 07:31:08;;;;;;;1999.90;999.90;;;;;;;13.05;100.00;93871.28;6245064;23;20180;-64
2022/09/17 07:33:34;;;;;;;1999.90;999.90;;;;;;;13.65;100.00;93865.91;6270922;22;20173;-68
2022/09/17 07:36:02;;;;;;;1999.90;999.90;;;;;;;14.01;100.00;93870.56;6245201;22;20161;-65
2022/09/17 07:38:29;;;;;;;1999.90;999.90;;;;;;;14.01;100.00;93860.34;6245496;23;20161;-66
2022/09/17 07:40:57;;;;;;;1999.90;999.90;;;;;;;14.52;100.00;93863.84;6245900;23;20248;-65
2022/09/17 07:43:28;;;;;;;1999.90;999.90;;;;;;;16.58;100.00;93820.41;6245344;23;20169;-66
2022/09/17 07:45:55;;;;;;;1999.90;999.90;;;;;;;17.85;100.00;93790.31;6244979;23;20185;-67
2022/09/17 07:48:20;;;;;;;1999.90;999.90;;;;;;;17.55;100.00;93810.38;6244883;23;20169;-67
2022/09/17 07:50:46;;;;;;;1999.90;999.90;;;;;;;16.13;100.00;93836.25;6244788;23;20195;-67
2022/09/17 07:53:12;;;;;;;1999.90;999.90;;;;;;;17.02;100.00;93812.72;6244803;22;20179;-67
2022/09/17 07:55:38;;;;;;;1999.90;999.90;;;;;;;15.90;100.00;93855.63;6244860;22;20153;-66
2022/09/17 07:58:03;;;;;;;1999.90;999.90;;;;;;;15.18;100.00;93861.72;6244871;23;20165;-61
2022/09/17 08:00:29;;;;;;;1999.90;999.90;;;;;;;14.39;100.00;93865.28;6244580;22;20172;-61
2022/09/17 08:02:55;;;;;;;1999.90;999.90;;;;;;;13.65;100.00;93874.16;6245061;23;20223;-61
2022/09/17 08:05:22;;;;;;;1999.90;999.90;;;;;;;13.28;100.00;93884.41;6244602;23;20161;-61
2022/09/17 08:07:51;;;;;;;1999.90;999.90;;;;;;;13.26;100.00;93889.56;6244902;23;20162;-63
2022/09/17 08:10:20;;;;;;;1999.90;999.90;;;;;;;13.11;100.00;93885.13;6244777;23;20165;-63
2022/09/17 08:12:49;;;;;;;1999.90;999.90;;;;;;;13.15;100.00;93886.50;6245352;22;20165;-67
2022/09/17 08:15:15;;;;;;;1999.90;999.90;;;;;;;13.04;100.00;93888.19;6271968;22;20590;-64
2022/09/17 08:17:45;;;;;;;1999.90;999.90;;;;;;;12.78;100.00;93895.88;6246161;22;20162;-65
2022/09/17 08:20:11;;;;;;;1999.90;999.90;;;;;;;12.79;100.00;93896.66;6246009;23;20157;-66
2022/09/17 08:22:36;;;;;;;1999.90;999.90;;;;;;;13.20;100.00;93898.88;6272360;22;20161;-65
2022/09/17 08:25:03;;;;;;;1999.90;999.90;;;;;;;13.61;100.00;93884.53;6272077;22;20254;-66
2022/09/17 08:27:31;;;;;;;1999.90;999.90;;;;;;;14.26;100.00;93873.72;6247411;22;20185;-64
2022/09/17 08:29:57;;;;;;;1999.90;999.90;;;;;;;14.65;100.00;93891.09;6245677;22;20172;-65
2022/09/17 08:32:23;;;;;;;1999.90;999.90;;;;;;;15.43;100.00;93881.28;6271988;22;20165;-63
2022/09/17 08:34:48;;;;;;;1999.90;999.90;;;;;;;16.27;100.00;93884.28;6271408;22;20169;-63
2022/09/17 08:37:13;;;;;;;1999.90;999.90;;;;;;;15.80;100.00;93899.00;6271981;22;20184;-62
2022/09/17 08:39:39;;;;;;;1999.90;999.90;;;;;;;15.67;100.00;93908.75;6271915;22;20163;-64
2022/09/17 08:42:22;;;;;;;1999.90;999.90;;;;;;;15.47;100.00;93912.13;6271386;22;20168;-64
2022/09/17 08:44:47;;;;;;;1999.90;999.90;;;;;;;14.88;100.00;93932.34;6271544;22;20256;-66
2022/09/17 08:47:25;;;;;;;1999.90;999.90;;;;;;;14.54;100.00;93971.28;6271787;22;20264;-66
2022/09/17 08:49:59;;;;;;;1999.90;999.90;;;;;;;14.09;100.00;93979.59;6246566;23;20702;-66
2022/09/17 08:52:53;;;;;;;1999.90;999.90;;;;;;;13.69;100.00;94008.44;6246389;22;20184;-64
2022/09/17 08:55:35;;;;;;;1999.90;999.90;;;;;;;13.70;100.00;94005.25;6271324;22;20496;-64
2022/09/17 08:58:19;;;;;;;1999.90;999.90;;;;;;;13.33;100.00;94000.91;6246600;23;20464;-65
2022/09/17 09:00:52;;;;;;;1999.90;999.90;;;;;;;13.42;100.00;94013.88;6271672;22;20173;-64
2022/09/17 09:03:41;;;;;;;1999.90;999.90;;;;;;;13.26;100.00;94015.69;6246436;23;20169;-64
2022/09/17 09:06:07;;;;;;;1999.90;999.90;;;;;;;13.06;100.00;94025.53;6246402;23;20199;-64
2022/09/17 09:08:42;;;;;;;1999.90;999.90;;;;;;;13.08;100.00;94028.59;6245626;23;20240;-64
2022/09/17 09:11:22;;;;;;;1999.90;999.90;;;;;;;12.98;100.00;94029.78;6246277;23;20187;-65
2022/09/17 09:14:18;;;;;;;1999.90;999.90;;;;;;;12.99;100.00;94026.59;6246326;23;20171;-61
2022/09/17 09:16:44;;;;;;;1999.90;999.90;;;;;;;12.88;100.00;94033.66;6246314;23;20582;-63
2022/09/17 09:19:22;;;;;;;1999.90;999.90;;;;;;;12.82;100.00;94043.69;6246608;23;20199;-61
2022/09/17 09:22:03;;;;;;;1999.90;999.90;;;;;;;12.93;100.00;94046.78;6245830;23;20621;-60
2022/09/17 09:24:41;;;;;;;1999.90;999.90;;;;;;;12.90;100.00;94050.41;6245946;22;20197;-60
2022/09/17 09:27:12;;;;;;;1999.90;999.90;;;;;;;12.95;100.00;94047.06;6245202;23;20184;-64
2022/09/17 09:30:00;;;;;;;1999.90;999.90;;;;;;;13.02;100.00;94042.13;6272003;22;20172;-61
2022/09/17 09:32:38;;;;;;;1999.90;999.90;;;;;;;13.00;100.00;94049.25;6271926;22;20157;-60
2022/09/17 09:35:26;;;;;;;1999.90;999.90;;;;;;;13.12;100.00;94040.19;6271220;22;20176;-61
2022/09/17 09:37:58;;;;;;;1999.90;999.90;;;;;;;13.05;100.00;94045.94;6246028;23;20231;-61
2022/09/17 09:40:33;;;;;;;1999.90;999.90;;;;;;;13.04;100.00;94050.63;6245776;23;20174;-61
2022/09/17 09:43:06;;;;;;;1999.90;999.90;;;;;;;12.81;100.00;94064.06;6245706;23;20175;-61
2022/09/17 09:45:44;;;;;;;1999.90;999.90;;;;;;;12.70;100.00;94069.94;6271527;22;20172;-61
2022/09/17 09:48:32;;;;;;;1999.90;999.90;;;;;;;12.56;100.00;94059.53;6271438;22;20189;-61
2022/09/17 09:51:03;;;;;;;1999.90;999.90;;;;;;;12.26;100.00;94051.28;6246177;23;20191;-62
2022/09/17 09:53:55;;;;;;;1999.90;999.90;;;;;;;12.36;100.00;94048.16;6271802;22;20216;-60
2022/09/17 09:56:50;;;;;;;1999.90;999.90;;;;;;;12.65;100.00;94034.16;6189646;23;20166;-61
2022/09/17 09:59:17;;;;;;;1999.90;999.90;;;;;;;12.94;100.00;94034.59;6219891;23;20179;-60
2022/09/17 10:01:43;;;;;;;1999.90;999.90;;;;;;;13.00;100.00;94041.03;6246180;23;20447;-58
2022/09/17 10:04:31;;;;;;;1999.90;999.90;;;;;;;12.77;100.00;94052.47;6270930;22;20230;-59
2022/09/17 10:07:04;;;;;;;1999.90;999.90;;;;;;;12.55;100.00;94046.28;6271593;22;20236;-61
2022/09/17 10:09:31;;;;;;;1999.90;999.90;;;;;;;12.26;100.00;94054.78;6245760;23;20179;-62
2022/09/17 10:12:09;;;;;;;1999.90;999.90;;;;;;;11.96;100.00;94041.81;6246376;22;20486;-61
2022/09/17 10:14:40;;;;;;;1999.90;999.90;;;;;;;12.02;100.00;94025.59;6271202;22;20201;-59
2022/09/17 10:17:20;;;;;;;1999.90;999.90;;;;;;;11.72;100.00;94012.56;6245724;22;20248;-60
2022/09/17 10:20:10;;;;;;;1999.90;999.90;;;;;;;11.66;100.00;94030.78;6245411;23;20159;-60
2022/09/17 10:22:54;;;;;;;1999.90;999.90;;;;;;;11.60;100.00;94032.50;6228821;23;20166;-60
2022/09/17 10:25:27;;;;;;;1999.90;999.90;;;;;;;11.48;100.00;94031.31;6271179;22;20173;-61
2022/09/17 10:27:53;;;;;;;1999.90;999.90;;;;;;;11.39;100.00;94033.22;6246067;23;20192;-64
2022/09/17 10:30:18;;;;;;;1999.90;999.90;;;;;;;11.30;100.00;94031.19;6245464;23;20172;-62
2022/09/17 10:33:12;;;;;;;1999.90;999.90;;;;;;;11.05;100.00;94024.97;6271017;22;20173;-62
2022/09/17 10:35:38;;;;;;;1999.90;999.90;;;;;;;10.79;100.00;94007.88;6270676;22;20192;-64
2022/09/17 10:38:03;;;;;;;1999.90;999.90;;;;;;;10.71;100.00;94006.53;6245056;23;20203;-64
2022/09/17 10:40:31;;;;;;;1999.90;999.90;;;;;;;10.63;100.00;93993.56;6271409;22;20173;-63
2022/09/17 10:43:17;;;;;;;1999.90;999.90;;;;;;;10.63;100.00;93985.38;6271304;22;20161;-63
2022/09/17 10:45:53;;;;;;;1999.90;999.90;;;;;;;10.67;100.00;93983.31;6245873;23;20220;-63
2022/09/17 10:48:20;;;;;;;1999.90;999.90;;;;;;;10.88;100.00;93983.38;6245765;23;20157;-64
2022/09/17 10:50:51;;;;;;;1999.90;999.90;;;;;;;11.11;100.00;93976.78;6245092;22;20181;-62
2022/09/17 10:53:18;;;;;;;1999.90;999.90;;;;;;;11.23;100.00;93956.84;6271110;22;20219;-63
2022/09/17 10:56:05;;;;;;;1999.90;999.90;;;;;;;11.27;100.00;93954.75;6245168;22;20157;-62
2022/09/17 10:58:46;;;;;;;1999.90;999.90;;;;;;;11.45;100.00;93941.25;6271076;22;20181;-62
2022/09/17 11:01:17;;;;;;;1999.90;999.90;;;;;;;11.37;100.00;93953.63;6245454;23;20599;-61